Time;durP1;ratioP1;P1;durP2;ratioP2;P2;SDS_P1;SDS_P2;PMS_P1;PMS_P2;Temp;Humidity;BMP_temperature;BMP_pressure;BME280_temperature;BME280_humidity;BME280_pressure;Samples;Min_cycle;Max_cycle;Signal;HPM_P1;HPM_P2
2023/12/26 00:00:56;;;;;;;1.40;1.30;;;14.20;82.20;;;;;;5033780;28;20032;-77
2023/12/26 00:03:22;;;;;;;1.40;1.30;;;14.20;82.20;;;;;;5017083;28;20025;-78
2023/12/26 00:05:48;;;;;;;1.20;1.20;;;14.20;82.20;;;;;;5021765;28;20040;-80
2023/12/26 00:08:14;;;;;;;1.10;1.10;;;14.20;82.20;;;;;;5015652;28;20068;-79
2023/12/26 00:10:40;;;;;;;1.05;1.05;;;14.20;82.20;;;;;;5025738;28;20083;-78
2023/12/26 00:13:05;;;;;;;1.40;1.30;;;14.20;82.30;;;;;;5032265;28;20034;-79
2023/12/26 00:15:31;;;;;;;1.15;1.10;;;14.20;82.30;;;;;;5025741;28;20037;-79
2023/12/26 00:17:57;;;;;;;1.00;1.00;;;14.20;82.20;;;;;;5016043;28;20060;-78
2023/12/26 00:20:23;;;;;;;1.20;1.00;;;14.20;82.20;;;;;;5008336;28;20043;-78
2023/12/26 00:22:48;;;;;;;1.33;1.23;;;14.20;82.20;;;;;;5022279;28;20517;-78
2023/12/26 00:25:14;;;;;;;1.02;1.02;;;14.20;82.20;;;;;;4994718;28;20086;-78
2023/12/26 00:27:42;;;;;;;1.27;1.20;;;14.20;82.20;;;;;;4993966;28;20399;-78
2023/12/26 00:30:08;;;;;;;1.33;1.23;;;14.20;82.20;;;;;;5035844;28;20025;-78
2023/12/26 00:32:35;;;;;;;1.15;1.10;;;14.20;82.20;;;;;;5033485;28;20039;-78
2023/12/26 00:35:01;;;;;;;1.30;1.20;;;14.20;82.20;;;;;;5009363;28;20116;-78
2023/12/26 00:37:27;;;;;;;0.90;0.90;;;14.20;82.10;;;;;;5015567;28;20021;-78
2023/12/26 00:39:53;;;;;;;0.90;0.90;;;14.20;82.20;;;;;;5027513;28;20377;-79
2023/12/26 00:42:19;;;;;;;1.08;1.08;;;14.20;82.10;;;;;;5032081;28;20034;-78
2023/12/26 00:44:45;;;;;;;1.17;1.10;;;14.20;82.20;;;;;;5033031;28;20041;-80
2023/12/26 00:47:11;;;;;;;1.30;1.20;;;14.20;82.20;;;;;;5042470;28;20060;-80
2023/12/26 00:49:37;;;;;;;1.02;1.02;;;14.20;82.20;;;;;;5039835;28;20036;-79
2023/12/26 00:52:03;;;;;;;1.20;1.10;;;14.20;82.10;;;;;;5031649;28;20409;-79
2023/12/26 00:54:29;;;;;;;1.02;0.98;;;14.20;82.10;;;;;;5021491;28;20031;-79
2023/12/26 00:56:54;;;;;;;1.25;1.05;;;14.20;82.10;;;;;;5032655;28;20025;-79
2023/12/26 00:59:23;;;;;;;0.90;0.90;;;14.10;82.10;;;;;;5030919;28;20120;-79
2023/12/26 01:01:49;;;;;;;0.90;0.90;;;14.20;82.20;;;;;;5024519;28;20052;-80
2023/12/26 01:04:16;;;;;;;1.00;0.88;;;14.20;82.20;;;;;;5034019;28;20053;-78
2023/12/26 01:06:42;;;;;;;0.80;0.80;;;14.10;82.20;;;;;;4998306;28;20474;-78
2023/12/26 01:09:08;;;;;;;1.08;1.00;;;14.10;82.10;;;;;;5042574;28;20061;-79
2023/12/26 01:11:34;;;;;;;0.80;0.80;;;14.20;82.20;;;;;;5011635;28;20036;-80
2023/12/26 01:14:00;;;;;;;1.10;1.00;;;14.10;82.20;;;;;;5046286;28;20037;-79
2023/12/26 01:16:27;;;;;;;0.80;0.80;;;14.10;82.20;;;;;;4994801;28;20029;-79
2023/12/26 01:18:53;;;;;;;1.00;1.00;;;14.10;82.20;;;;;;5014250;28;20049;-78
2023/12/26 01:21:19;;;;;;;0.90;0.90;;;14.10;82.30;;;;;;5044107;28;20059;-80
2023/12/26 01:23:45;;;;;;;0.95;0.95;;;14.10;82.20;;;;;;5029609;28;20123;-79
2023/12/26 01:26:10;;;;;;;0.93;0.93;;;14.10;82.20;;;;;;5014238;28;20524;-80
2023/12/26 01:28:36;;;;;;;1.17;1.10;;;14.10;82.20;;;;;;5030841;28;20025;-79
2023/12/26 01:31:02;;;;;;;1.42;1.10;;;14.10;82.20;;;;;;5032501;28;20116;-78
2023/12/26 01:33:28;;;;;;;0.90;0.90;;;14.10;82.20;;;;;;5029085;28;20032;-79
2023/12/26 01:35:54;;;;;;;1.00;1.00;;;14.10;82.30;;;;;;4989752;28;20387;-79
2023/12/26 01:38:20;;;;;;;1.00;1.00;;;14.10;82.30;;;;;;5013868;28;20551;-80
2023/12/26 01:40:46;;;;;;;1.30;1.20;;;14.10;82.30;;;;;;5013274;28;20064;-80
2023/12/26 01:43:12;;;;;;;1.27;1.17;;;14.10;82.30;;;;;;5008561;28;20037;-80
2023/12/26 01:45:38;;;;;;;1.30;1.20;;;14.10;82.30;;;;;;5016178;28;20127;-79
2023/12/26 01:48:06;;;;;;;1.63;1.10;;;14.10;82.30;;;;;;4989694;28;20440;-79
2023/12/26 01:50:33;;;;;;;1.10;1.10;;;14.10;82.40;;;;;;5012834;28;20033;-79
2023/12/26 01:52:59;;;;;;;1.30;1.10;;;14.10;82.40;;;;;;5030332;28;20120;-79
2023/12/26 01:55:25;;;;;;;0.95;0.95;;;14.10;82.40;;;;;;5029586;28;21454;-81
2023/12/26 01:57:56;;;;;;;1.10;1.00;;;14.10;82.40;;;;;;5029124;28;20504;-78
2023/12/26 02:00:22;;;;;;;1.10;0.90;;;14.00;82.40;;;;;;5010555;28;20025;-79
2023/12/26 02:02:52;;;;;;;1.00;1.00;;;14.00;82.40;;;;;;5008519;28;20084;-79
2023/12/26 02:05:18;;;;;;;1.00;1.00;;;14.00;82.40;;;;;;5025087;28;20029;-79
2023/12/26 02:07:44;;;;;;;1.02;1.00;;;14.00;82.40;;;;;;5007536;28;20021;-78
2023/12/26 02:10:10;;;;;;;1.08;1.08;;;14.00;82.40;;;;;;5013759;28;20119;-78
2023/12/26 02:12:36;;;;;;;1.02;0.93;;;14.00;82.40;;;;;;5013896;28;20529;-80
2023/12/26 02:15:04;;;;;;;1.10;1.08;;;14.00;82.40;;;;;;5008254;28;20037;-79
2023/12/26 02:17:30;;;;;;;1.00;1.00;;;14.00;82.40;;;;;;5031580;28;20060;-79
2023/12/26 02:19:57;;;;;;;1.02;1.02;;;14.00;82.40;;;;;;5011677;28;20032;-79
2023/12/26 02:22:23;;;;;;;1.02;1.00;;;14.00;82.40;;;;;;5032071;28;20082;-79
2023/12/26 02:24:49;;;;;;;1.10;1.10;;;14.00;82.50;;;;;;5029191;28;20132;-79
2023/12/26 02:27:29;;;;;;;1.27;1.17;;;14.00;82.50;;;;;;5027780;28;20040;-79
2023/12/26 02:29:56;;;;;;;0.93;0.90;;;14.00;82.50;;;;;;5040021;28;20462;-80
2023/12/26 02:32:25;;;;;;;1.00;1.00;;;14.00;82.40;;;;;;5027258;28;20080;-80
2023/12/26 02:34:55;;;;;;;1.00;1.00;;;14.00;82.40;;;;;;5027316;28;20098;-79
2023/12/26 02:37:23;;;;;;;1.10;1.00;;;14.00;82.50;;;;;;5041242;28;20060;-80
2023/12/26 02:39:50;;;;;;;1.15;1.00;;;14.00;82.40;;;;;;5025044;28;20473;-79
2023/12/26 02:42:21;;;;;;;0.95;0.95;;;14.00;82.40;;;;;;5011785;28;20056;-81
2023/12/26 02:44:47;;;;;;;0.90;0.90;;;13.90;82.40;;;;;;5041937;28;20033;-79
2023/12/26 02:47:14;;;;;;;1.10;1.10;;;13.90;82.40;;;;;;5040533;28;20052;-80
2023/12/26 02:49:40;;;;;;;1.00;1.00;;;14.00;82.50;;;;;;5022450;28;20133;-79
2023/12/26 02:52:06;;;;;;;0.80;0.80;;;13.90;82.40;;;;;;5026245;28;20025;-79
2023/12/26 02:54:32;;;;;;;0.90;0.90;;;13.90;82.40;;;;;;5028760;28;20045;-79
2023/12/26 02:56:57;;;;;;;1.00;1.00;;;14.00;82.50;;;;;;5030829;28;20035;-79
2023/12/26 02:59:23;;;;;;;1.17;1.13;;;13.90;82.40;;;;;;5028099;28;20047;-80
2023/12/26 03:01:49;;;;;;;0.80;0.80;;;13.90;83.00;;;;;;5035610;28;20116;-80
2023/12/26 03:04:15;;;;;;;0.90;0.90;;;14.00;82.50;;;;;;5042040;28;20072;-79
2023/12/26 03:06:41;;;;;;;1.00;1.00;;;13.90;82.40;;;;;;5019956;28;20040;-79
2023/12/26 03:09:09;;;;;;;1.45;1.00;;;13.90;82.40;;;;;;5027695;28;20393;-79
2023/12/26 03:11:35;;;;;;;0.98;0.93;;;13.90;82.40;;;;;;5033779;28;20044;-79
2023/12/26 03:14:01;;;;;;;1.83;0.98;;;13.90;82.40;;;;;;5036221;28;20469;-79
2023/12/26 03:16:27;;;;;;;1.83;1.10;;;13.90;82.40;;;;;;5030357;28;20033;-79
2023/12/26 03:18:53;;;;;;;1.10;1.00;;;13.90;82.40;;;;;;5029750;28;20025;-79
2023/12/26 03:21:20;;;;;;;1.10;1.00;;;13.90;82.40;;;;;;5038770;28;20027;-80
2023/12/26 03:23:47;;;;;;;1.50;0.98;;;13.90;82.40;;;;;;5032664;28;20414;-80
2023/12/26 03:26:13;;;;;;;1.65;1.02;;;13.90;82.40;;;;;;5032538;28;20042;-79
2023/12/26 03:28:39;;;;;;;2.15;1.10;;;13.90;82.40;;;;;;5047533;28;20148;-80
2023/12/26 03:31:06;;;;;;;2.03;1.13;;;13.90;82.50;;;;;;5030215;28;20112;-79
2023/12/26 03:33:36;;;;;;;1.10;1.00;;;13.90;82.50;;;;;;5041018;28;20036;-79
2023/12/26 03:36:02;;;;;;;1.90;0.93;;;13.90;82.50;;;;;;5026936;28;20033;-80
2023/12/26 03:38:29;;;;;;;1.00;1.00;;;13.80;82.40;;;;;;5036346;28;20033;-78
2023/12/26 03:40:55;;;;;;;1.90;1.02;;;13.90;82.50;;;;;;5027453;28;20025;-78
2023/12/26 03:43:21;;;;;;;1.58;1.15;;;13.90;82.50;;;;;;5029636;28;20042;-79
2023/12/26 03:45:49;;;;;;;1.83;1.27;;;13.90;82.50;;;;;;5028009;28;20094;-79
2023/12/26 03:48:15;;;;;;;0.93;0.90;;;13.80;82.50;;;;;;5045944;28;20033;-79
2023/12/26 03:50:41;;;;;;;0.98;0.90;;;13.80;82.50;;;;;;5026352;28;20043;-79
2023/12/26 03:53:07;;;;;;;1.95;1.10;;;13.80;82.50;;;;;;5003624;28;20025;-79
2023/12/26 03:55:34;;;;;;;1.52;1.00;;;13.80;82.40;;;;;;5039336;28;20386;-79
2023/12/26 03:58:00;;;;;;;1.02;1.00;;;13.80;82.40;;;;;;5024511;28;20025;-79
2023/12/26 04:00:28;;;;;;;1.23;1.10;;;13.80;82.40;;;;;;5032594;28;20079;-78
2023/12/26 04:02:53;;;;;;;1.92;1.10;;;13.80;82.50;;;;;;5034527;28;20033;-79
2023/12/26 04:05:20;;;;;;;1.02;0.93;;;13.80;82.50;;;;;;5021279;28;20045;-79
2023/12/26 04:07:48;;;;;;;1.17;1.08;;;13.80;82.50;;;;;;5032603;28;20049;-79
2023/12/26 04:10:14;;;;;;;1.48;1.00;;;13.80;82.50;;;;;;5014436;28;20059;-79
2023/12/26 04:12:41;;;;;;;2.53;1.10;;;13.80;82.50;;;;;;5024116;28;20039;-79
2023/12/26 04:15:08;;;;;;;0.95;0.90;;;13.80;82.50;;;;;;5012533;28;20056;-80
2023/12/26 04:17:35;;;;;;;2.50;1.20;;;13.80;82.50;;;;;;5031853;28;20457;-80
2023/12/26 04:20:02;;;;;;;2.65;1.10;;;13.70;82.40;;;;;;5012478;28;20056;-79
2023/12/26 04:22:28;;;;;;;2.17;1.00;;;13.80;82.50;;;;;;5013981;28;20151;-79
2023/12/26 04:24:53;;;;;;;1.73;1.13;;;13.70;82.40;;;;;;5038541;28;20064;-79
2023/12/26 04:27:23;;;;;;;1.05;0.95;;;13.70;82.50;;;;;;5023700;28;20387;-79
2023/12/26 04:29:49;;;;;;;1.67;1.00;;;13.70;82.40;;;;;;5044554;28;20504;-78
2023/12/26 04:32:15;;;;;;;1.80;1.10;;;13.70;82.40;;;;;;5022020;28;20025;-79
2023/12/26 04:34:41;;;;;;;1.65;0.93;;;13.70;82.40;;;;;;5016904;28;20488;-80
2023/12/26 04:37:07;;;;;;;0.90;0.90;;;13.70;82.40;;;;;;5026877;28;20043;-79
2023/12/26 04:39:33;;;;;;;1.33;1.10;;;13.70;82.50;;;;;;5023551;28;20120;-80
2023/12/26 04:42:00;;;;;;;1.35;0.90;;;13.70;82.50;;;;;;4994368;28;20042;-79
2023/12/26 04:44:26;;;;;;;1.05;1.00;;;13.70;82.50;;;;;;5035277;28;20178;-80
2023/12/26 04:46:51;;;;;;;1.35;1.20;;;13.70;82.50;;;;;;5007903;28;20056;-79
2023/12/26 04:49:17;;;;;;;1.75;1.05;;;13.70;82.50;;;;;;5014661;28;20493;-79
2023/12/26 04:51:43;;;;;;;1.40;1.10;;;13.60;82.40;;;;;;5030706;28;20033;-79
2023/12/26 04:54:09;;;;;;;1.23;0.95;;;13.60;82.40;;;;;;5028439;28;20036;-79
2023/12/26 04:56:36;;;;;;;1.73;0.80;;;13.60;82.40;;;;;;5027669;28;20029;-80
2023/12/26 04:59:03;;;;;;;1.88;0.95;;;13.60;82.50;;;;;;5026699;28;20167;-79
2023/12/26 05:01:29;;;;;;;1.42;0.90;;;13.60;82.50;;;;;;5027527;28;20038;-79
2023/12/26 05:03:55;;;;;;;1.50;0.90;;;13.60;82.50;;;;;;5018032;28;20037;-79
2023/12/26 05:06:21;;;;;;;0.90;0.90;;;13.50;82.40;;;;;;5014988;28;20029;-80
2023/12/26 05:08:47;;;;;;;1.20;0.95;;;13.50;82.40;;;;;;5016060;28;20096;-79
2023/12/26 05:11:23;;;;;;;1.20;1.10;;;13.50;82.40;;;;;;5011386;28;20111;-80
2023/12/26 05:13:56;;;;;;;1.35;1.05;;;13.50;82.50;;;;;;5026818;28;20040;-80
2023/12/26 05:16:22;;;;;;;0.90;0.90;;;13.50;82.50;;;;;;5030920;28;20025;-79
2023/12/26 05:18:48;;;;;;;1.67;1.00;;;13.50;82.50;;;;;;5007861;28;20029;-80
2023/12/26 05:21:21;;;;;;;1.23;1.00;;;13.40;82.40;;;;;;5026887;28;20034;-80
2023/12/26 05:23:49;;;;;;;;;;;13.40;82.50;;;;;;5026587;28;20524;-79
2023/12/26 05:26:15;;;;;;;1.90;1.15;;;13.40;82.40;;;;;;5044103;28;19915;-79
2023/12/26 05:28:42;;;;;;;1.08;1.00;;;13.40;82.30;;;;;;5024207;28;20491;-79
2023/12/26 05:31:08;;;;;;;1.13;0.90;;;13.40;82.40;;;;;;5028323;28;20068;-79
2023/12/26 05:33:34;;;;;;;0.88;0.88;;;13.30;82.40;;;;;;5039987;28;20037;-80
2023/12/26 05:36:02;;;;;;;1.95;1.00;;;13.30;82.50;;;;;;5041919;28;20069;-81
2023/12/26 05:38:29;;;;;;;1.63;0.90;;;13.30;82.50;;;;;;4991920;28;20044;-81
2023/12/26 05:40:54;;;;;;;0.80;0.80;;;13.30;82.50;;;;;;5034599;28;20026;-78
2023/12/26 05:43:21;;;;;;;1.98;1.00;;;13.30;82.50;;;;;;4991456;28;20032;-79
2023/12/26 05:45:48;;;;;;;1.13;1.00;;;13.30;82.50;;;;;;5016015;28;20041;-79
2023/12/26 05:48:14;;;;;;;0.95;0.80;;;13.30;82.50;;;;;;5030259;28;20053;-79
2023/12/26 05:50:39;;;;;;;1.15;1.02;;;13.20;82.40;;;;;;5013567;28;20064;-79
2023/12/26 05:53:05;;;;;;;2.33;1.13;;;13.20;82.40;;;;;;4988919;28;20029;-79
2023/12/26 05:55:31;;;;;;;2.13;1.20;;;13.20;82.40;;;;;;5008281;28;20029;-79
2023/12/26 05:57:57;;;;;;;2.58;1.30;;;13.20;82.40;;;;;;5023756;28;20017;-78
2023/12/26 06:00:23;;;;;;;2.45;1.08;;;13.10;82.40;;;;;;5011134;28;20036;-79
2023/12/26 06:02:49;;;;;;;1.48;1.00;;;13.10;82.40;;;;;;5014594;28;20362;-79
2023/12/26 06:05:15;;;;;;;1.65;1.10;;;13.10;82.40;;;;;;5018029;28;20044;-79
2023/12/26 06:07:41;;;;;;;2.58;1.23;;;13.10;82.40;;;;;;5002428;28;20467;-79
2023/12/26 06:10:07;;;;;;;1.80;1.10;;;13.10;82.40;;;;;;5044886;28;20136;-78
2023/12/26 06:12:35;;;;;;;1.10;1.00;;;13.00;82.40;;;;;;4995488;28;20037;-79
2023/12/26 06:15:02;;;;;;;1.75;1.15;;;13.00;82.40;;;;;;5024860;28;20735;-78
2023/12/26 06:17:29;;;;;;;3.08;1.13;;;13.00;82.40;;;;;;5021808;28;20022;-79
2023/12/26 06:19:55;;;;;;;3.03;1.13;;;13.00;82.50;;;;;;5029679;28;20186;-78
2023/12/26 06:22:21;;;;;;;1.10;1.00;;;13.00;82.50;;;;;;5023188;28;20116;-79
2023/12/26 06:24:47;;;;;;;1.52;1.00;;;13.00;82.50;;;;;;5021908;28;20123;-78
2023/12/26 06:27:13;;;;;;;1.08;1.00;;;12.90;82.40;;;;;;5000708;28;20037;-78
2023/12/26 06:29:39;;;;;;;1.40;1.00;;;12.90;82.40;;;;;;5024445;28;20070;-79
2023/12/26 06:32:05;;;;;;;1.83;1.20;;;12.90;82.50;;;;;;5008305;28;20029;-79
2023/12/26 06:34:30;;;;;;;1.02;0.90;;;12.90;82.50;;;;;;5032491;28;20041;-79
2023/12/26 06:36:56;;;;;;;2.85;1.20;;;12.80;82.40;;;;;;5033231;28;20036;-79
2023/12/26 06:39:22;;;;;;;2.67;1.10;;;12.80;82.40;;;;;;5027356;28;20022;-78
2023/12/26 06:41:48;;;;;;;3.42;1.00;;;12.80;82.50;;;;;;5029408;28;20084;-79
2023/12/26 06:44:14;;;;;;;1.23;0.95;;;12.80;82.50;;;;;;5048835;28;20404;-79
2023/12/26 06:46:41;;;;;;;3.03;1.05;;;12.70;82.40;;;;;;5026526;28;20042;-79
2023/12/26 06:49:08;;;;;;;2.03;1.23;;;12.70;82.40;;;;;;5031015;28;20040;-79
2023/12/26 06:51:41;;;;;;;2.42;1.10;;;12.70;82.40;;;;;;5009836;28;20155;-79
2023/12/26 06:54:08;;;;;;;2.75;1.20;;;12.70;82.50;;;;;;5041771;28;20032;-79
2023/12/26 06:56:34;;;;;;;1.10;0.90;;;12.70;82.40;;;;;;5012731;28;20029;-79
2023/12/26 06:59:00;;;;;;;1.58;0.90;;;12.60;82.40;;;;;;4989424;28;20057;-79
2023/12/26 07:01:26;;;;;;;1.50;1.10;;;12.60;82.40;;;;;;5042696;28;20033;-79
2023/12/26 07:03:52;;;;;;;1.83;1.17;;;12.60;82.40;;;;;;5029671;28;20052;-80
2023/12/26 07:06:18;;;;;;;2.92;1.10;;;12.60;82.40;;;;;;5007473;28;20017;-79
2023/12/26 07:08:45;;;;;;;2.08;1.13;;;12.60;82.40;;;;;;5011774;28;20044;-80
2023/12/26 07:11:11;;;;;;;0.93;0.80;;;12.50;82.40;;;;;;5003843;28;20087;-79
2023/12/26 07:13:36;;;;;;;1.08;1.00;;;12.50;83.00;;;;;;5026063;28;20037;-79
2023/12/26 07:16:02;;;;;;;2.63;1.00;;;12.50;82.40;;;;;;5017042;28;20026;-78
2023/12/26 07:18:28;;;;;;;1.17;0.93;;;12.50;82.40;;;;;;4989734;28;20034;-80
2023/12/26 07:20:54;;;;;;;1.77;1.05;;;12.40;82.40;;;;;;5037677;28;20140;-78
2023/12/26 07:23:20;;;;;;;2.63;1.10;;;12.40;82.40;;;;;;5011710;28;20078;-79
2023/12/26 07:25:48;;;;;;;1.25;1.00;;;12.40;82.40;;;;;;5031072;28;20091;-80
2023/12/26 07:28:17;;;;;;;2.15;1.35;;;12.40;82.40;;;;;;5014574;28;20037;-79
2023/12/26 07:30:43;;;;;;;2.10;1.13;;;12.40;82.40;;;;;;5031654;28;20061;-79
2023/12/26 07:33:09;;;;;;;0.95;0.90;;;12.40;82.40;;;;;;5027796;28;20029;-79
2023/12/26 07:35:36;;;;;;;1.33;0.98;;;12.30;82.30;;;;;;5036394;28;20033;-80
2023/12/26 07:38:03;;;;;;;2.10;1.35;;;12.30;82.40;;;;;;5027614;28;20087;-80
2023/12/26 07:40:30;;;;;;;1.13;0.90;;;12.30;82.30;;;;;;5011733;28;20470;-79
2023/12/26 07:42:57;;;;;;;1.15;0.90;;;12.30;82.40;;;;;;5033179;28;20049;-79
2023/12/26 07:45:24;;;;;;;1.67;1.40;;;12.20;82.30;;;;;;5009055;28;20091;-80
2023/12/26 07:47:52;;;;;;;1.83;1.00;;;12.20;82.40;;;;;;5030767;28;20061;-79
2023/12/26 07:50:19;;;;;;;1.25;1.10;;;12.20;82.40;;;;;;5043174;28;20025;-79
2023/12/26 07:52:44;;;;;;;0.85;0.85;;;12.20;82.40;;;;;;5022015;28;20029;-79
2023/12/26 07:55:11;;;;;;;2.80;1.27;;;12.20;82.40;;;;;;5005652;28;20034;-80
2023/12/26 07:57:37;;;;;;;1.52;1.00;;;12.10;82.40;;;;;;5025041;28;20064;-82
2023/12/26 08:00:04;;;;;;;3.13;1.15;;;12.10;82.40;;;;;;5029879;28;20083;-79
2023/12/26 08:02:38;;;;;;;1.85;1.05;;;12.10;82.40;;;;;;5048446;28;20064;-80
2023/12/26 08:05:04;;;;;;;2.92;1.10;;;12.10;82.40;;;;;;5029781;28;20034;-79
2023/12/26 08:07:30;;;;;;;1.15;1.05;;;12.00;82.40;;;;;;5026952;28;20037;-79
2023/12/26 08:09:55;;;;;;;2.47;1.00;;;12.00;82.40;;;;;;5035331;28;20071;-80
2023/12/26 08:12:21;;;;;;;1.10;1.00;;;12.00;82.40;;;;;;5010338;28;20087;-79
2023/12/26 08:14:47;;;;;;;1.77;1.25;;;12.00;82.40;;;;;;5031116;28;20036;-79
2023/12/26 08:17:13;;;;;;;1.35;1.00;;;12.00;82.40;;;;;;5014493;28;20052;-80
2023/12/26 08:19:39;;;;;;;2.25;1.17;;;11.90;82.40;;;;;;5019511;28;20040;-80
2023/12/26 08:22:05;;;;;;;1.25;0.90;;;11.90;82.40;;;;;;5032383;28;20117;-79
2023/12/26 08:24:30;;;;;;;1.85;1.33;;;11.90;82.50;;;;;;5031028;28;20045;-79
2023/12/26 08:26:57;;;;;;;1.95;1.10;;;11.90;82.50;;;;;;5043986;28;20053;-79
2023/12/26 08:29:23;;;;;;;1.52;1.15;;;11.80;82.50;;;;;;5034208;28;20624;-79
2023/12/26 08:31:49;;;;;;;2.25;0.95;;;11.80;82.50;;;;;;4994755;28;20033;-80
2023/12/26 08:34:15;;;;;;;1.35;1.10;;;11.80;82.60;;;;;;5033644;28;20032;-79
2023/12/26 08:36:41;;;;;;;1.95;1.10;;;11.80;83.20;;;;;;5027082;28;20043;-78
2023/12/26 08:39:06;;;;;;;1.60;1.50;;;11.70;82.60;;;;;;5006965;28;20093;-80
2023/12/26 08:41:32;;;;;;;2.13;1.00;;;11.80;82.60;;;;;;5027776;28;20037;-79
2023/12/26 08:43:58;;;;;;;1.95;1.17;;;11.70;82.60;;;;;;5038761;28;20049;-79
2023/12/26 08:46:24;;;;;;;1.88;1.08;;;11.70;82.60;;;;;;5010150;28;20080;-79
2023/12/26 08:48:50;;;;;;;0.90;0.90;;;11.70;82.60;;;;;;5011265;28;20036;-78
2023/12/26 08:51:19;;;;;;;1.77;1.00;;;11.70;82.70;;;;;;4993243;28;20049;-79
2023/12/26 08:53:46;;;;;;;2.88;1.10;;;11.70;82.70;;;;;;5044762;28;20074;-79
2023/12/26 08:56:13;;;;;;;1.42;1.00;;;11.60;82.70;;;;;;5044397;28;20025;-81
2023/12/26 08:58:38;;;;;;;1.10;1.00;;;11.70;82.70;;;;;;5028372;28;20022;-80
2023/12/26 09:01:06;;;;;;;1.13;1.00;;;11.60;82.60;;;;;;5037965;28;20179;-80
2023/12/26 09:03:32;;;;;;;1.95;1.38;;;11.60;82.60;;;;;;5018097;28;20037;-79
2023/12/26 09:05:58;;;;;;;1.55;0.90;;;11.60;82.60;;;;;;5029063;28;20155;-78
2023/12/26 09:08:23;;;;;;;1.88;1.30;;;11.60;82.70;;;;;;5042313;28;20083;-78
2023/12/26 09:10:49;;;;;;;2.33;1.27;;;11.60;82.70;;;;;;5012550;28;20021;-79
2023/12/26 09:13:20;;;;;;;2.90;1.25;;;11.60;82.60;;;;;;5004825;28;20018;-79
2023/12/26 09:15:48;;;;;;;2.10;1.13;;;11.60;82.70;;;;;;5010629;28;20128;-80
2023/12/26 09:18:15;;;;;;;1.20;1.00;;;11.60;82.70;;;;;;5027185;28;20041;-80
2023/12/26 09:20:41;;;;;;;1.33;0.98;;;11.60;82.70;;;;;;5040218;28;20179;-80
2023/12/26 09:23:07;;;;;;;2.08;1.15;;;11.50;82.70;;;;;;5027393;28;20585;-80
2023/12/26 09:25:33;;;;;;;0.82;0.82;;;11.50;82.70;;;;;;4992814;28;20045;-79
2023/12/26 09:27:59;;;;;;;2.88;1.10;;;11.50;82.70;;;;;;5009941;28;20067;-80
2023/12/26 09:30:24;;;;;;;0.95;0.95;;;11.50;82.70;;;;;;5029486;28;20485;-80
2023/12/26 09:32:53;;;;;;;1.42;1.00;;;11.50;82.60;;;;;;4988269;28;20176;-80
2023/12/26 09:35:19;;;;;;;1.92;1.13;;;11.50;82.60;;;;;;5028392;28;20041;-80
2023/12/26 09:37:45;;;;;;;1.63;1.42;;;11.50;82.60;;;;;;5022159;28;20409;-78
2023/12/26 09:40:14;;;;;;;2.08;1.08;;;11.50;82.60;;;;;;5028336;28;20045;-80
2023/12/26 09:42:40;;;;;;;1.17;1.00;;;11.50;82.60;;;;;;4987609;28;20036;-79
2023/12/26 09:45:10;;;;;;;1.10;1.00;;;11.50;82.60;;;;;;5027322;28;20041;-79
2023/12/26 09:47:38;;;;;;;1.80;1.10;;;11.50;82.70;;;;;;5035567;28;20103;-79
2023/12/26 09:50:04;;;;;;;1.38;1.08;;;11.50;82.70;;;;;;5041350;28;20040;-79
2023/12/26 09:52:32;;;;;;;2.03;1.20;;;11.40;82.60;;;;;;5006224;28;20047;-79
2023/12/26 09:54:58;;;;;;;1.83;1.10;;;11.40;82.60;;;;;;5012854;28;20086;-79
2023/12/26 09:57:24;;;;;;;4.43;1.40;;;11.40;82.60;;;;;;5036900;28;20047;-79
2023/12/26 09:59:51;;;;;;;2.38;1.20;;;11.40;82.60;;;;;;5023735;28;20053;-79
2023/12/26 10:02:17;;;;;;;2.05;1.13;;;11.50;82.70;;;;;;5027661;28;20032;-79
2023/12/26 10:04:45;;;;;;;2.88;1.10;;;11.40;82.60;;;;;;5042689;28;20355;-79
2023/12/26 10:07:14;;;;;;;2.90;1.65;;;11.40;82.60;;;;;;5010290;28;20025;-79
2023/12/26 10:09:40;;;;;;;1.40;1.05;;;11.40;82.60;;;;;;5029050;28;20036;-78
2023/12/26 10:12:07;;;;;;;2.38;1.20;;;11.40;82.60;;;;;;5044766;28;20381;-79
2023/12/26 10:14:32;;;;;;;1.30;1.00;;;11.40;82.60;;;;;;5010225;28;20028;-78
2023/12/26 10:16:59;;;;;;;1.17;1.00;;;11.40;82.70;;;;;;5008823;28;20032;-80
2023/12/26 10:19:25;;;;;;;2.80;1.30;;;11.40;82.60;;;;;;5041176;28;20587;-78
2023/12/26 10:21:54;;;;;;;3.00;1.10;;;11.40;82.70;;;;;;5039623;28;20159;-78
2023/12/26 10:24:21;;;;;;;2.67;1.42;;;11.40;82.70;;;;;;5029307;28;20037;-79
2023/12/26 10:26:47;;;;;;;2.15;1.50;;;11.40;82.60;;;;;;5028192;28;20040;-79
2023/12/26 10:29:14;;;;;;;2.83;1.17;;;11.40;82.70;;;;;;5021526;28;20036;-79
2023/12/26 10:31:41;;;;;;;2.97;1.20;;;11.40;82.70;;;;;;5022087;28;20029;-78
2023/12/26 10:34:16;;;;;;;3.00;1.38;;;11.40;82.70;;;;;;5028737;28;20394;-79
2023/12/26 10:36:46;;;;;;;4.55;1.63;;;11.40;82.70;;;;;;5042052;28;20111;-79
2023/12/26 10:39:13;;;;;;;1.83;1.20;;;11.40;82.60;;;;;;5010295;28;20022;-79
2023/12/26 10:41:48;;;;;;;2.30;1.30;;;11.40;82.60;;;;;;5043613;28;20462;-78
2023/12/26 10:44:18;;;;;;;2.55;1.35;;;11.50;82.80;;;;;;5030189;28;20045;-79
2023/12/26 10:46:49;;;;;;;2.92;1.27;;;11.40;82.70;;;;;;5036033;28;20045;-78
2023/12/26 10:49:23;;;;;;;1.95;1.10;;;11.40;82.70;;;;;;5013993;28;20029;-80
2023/12/26 10:51:51;;;;;;;;;;;11.40;82.70;;;;;;5021181;28;20208;-79
2023/12/26 10:54:24;;;;;;;1.48;1.05;;;11.30;82.50;;;;;;5021760;28;19957;-77
2023/12/26 10:56:51;;;;;;;2.40;0.95;;;11.40;82.50;;;;;;5045290;28;20017;-78
2023/12/26 13:52:59;;;;;;;1.02;0.90;;;11.90;82.70;;;;;;5045291;28;20405;-78
2023/12/26 13:56:02;;;;;;;1.58;1.30;;;11.90;82.70;;;;;;5043032;28;20029;-78
2023/12/26 13:59:05;;;;;;;1.17;0.90;;;11.90;82.70;;;;;;5038709;28;20044;-78
2023/12/26 14:02:09;;;;;;;1.15;1.00;;;11.90;82.70;;;;;;5041942;28;20033;-78
2023/12/26 14:05:12;;;;;;;1.40;1.00;;;11.90;82.60;;;;;;5027144;28;20067;-78
2023/12/26 14:08:17;;;;;;;1.92;1.20;;;11.90;82.60;;;;;;5039861;28;20138;-78
2023/12/26 14:11:20;;;;;;;3.00;1.40;;;11.90;82.60;;;;;;5026068;28;20063;-78
2023/12/26 14:14:24;;;;;;;1.40;1.02;;;12.00;82.60;;;;;;5028833;28;20037;-80
2023/12/26 14:17:27;;;;;;;1.10;1.00;;;12.00;82.60;;;;;;5041834;28;20385;-79
2023/12/26 14:20:31;;;;;;;2.47;1.10;;;12.00;82.60;;;;;;5022615;28;20033;-81
2023/12/26 14:23:35;;;;;;;3.15;1.10;;;11.90;82.60;;;;;;5044732;28;20028;-79
2023/12/26 14:26:38;;;;;;;1.92;1.10;;;12.00;82.70;;;;;;5032192;28;20120;-78
2023/12/26 14:29:42;;;;;;;1.42;1.00;;;12.00;82.60;;;;;;5042303;28;20042;-80
2023/12/26 14:32:45;;;;;;;1.48;1.10;;;12.00;82.60;;;;;;5021439;28;20039;-79
2023/12/26 14:35:48;;;;;;;1.80;1.05;;;12.00;82.60;;;;;;5037684;28;20042;-79
2023/12/26 14:38:52;;;;;;;2.25;1.50;;;11.90;83.20;;;;;;5037406;28;20035;-79
2023/12/26 14:41:55;;;;;;;1.15;1.05;;;11.90;82.60;;;;;;5027475;28;20361;-80
2023/12/26 14:44:58;;;;;;;2.20;1.20;;;11.90;82.60;;;;;;5045209;28;20477;-81
2023/12/26 14:48:02;;;;;;;1.67;1.25;;;11.90;82.60;;;;;;5023717;28;20075;-79
2023/12/26 14:51:06;;;;;;;2.67;1.23;;;11.90;82.60;;;;;;5035958;28;20191;-80
2023/12/26 14:54:09;;;;;;;1.92;1.10;;;12.00;82.60;;;;;;5025549;28;20119;-79
2023/12/26 14:57:12;;;;;;;4.95;1.25;;;12.00;82.60;;;;;;5041530;28;20041;-80
2023/12/26 15:00:16;;;;;;;1.80;1.02;;;11.90;82.50;;;;;;5040007;28;20036;-79
2023/12/26 15:02:44;;;;;;;2.03;1.25;;;11.90;82.60;;;;;;5037813;28;20477;-80
2023/12/26 15:05:10;;;;;;;1.70;1.05;;;11.90;82.50;;;;;;5027472;28;20036;-81
2023/12/26 15:07:37;;;;;;;1.15;1.10;;;11.90;82.50;;;;;;5005014;28;20445;-79
2023/12/26 15:10:04;;;;;;;1.30;1.20;;;11.90;82.50;;;;;;5011609;28;20576;-80
2023/12/26 15:12:30;;;;;;;1.98;1.20;;;11.90;82.50;;;;;;5033343;28;20132;-79
2023/12/26 15:14:56;;;;;;;1.42;1.00;;;11.90;82.50;;;;;;5040971;28;20144;-79
2023/12/26 15:17:22;;;;;;;2.38;1.23;;;12.00;82.60;;;;;;4983152;28;20040;-80
2023/12/26 15:19:48;;;;;;;2.90;1.38;;;12.00;82.50;;;;;;5026214;28;20064;-80
2023/12/26 15:22:15;;;;;;;2.63;1.25;;;11.90;82.50;;;;;;5027793;28;20449;-80
2023/12/26 15:24:41;;;;;;;2.58;1.50;;;11.90;82.50;;;;;;5028318;28;20079;-80
2023/12/26 15:27:07;;;;;;;1.27;1.10;;;11.90;82.50;;;;;;5027141;28;20045;-80
2023/12/26 15:29:34;;;;;;;1.08;1.05;;;12.00;82.50;;;;;;5016552;28;20028;-81
2023/12/26 15:32:00;;;;;;;2.55;1.30;;;12.00;82.50;;;;;;5027873;28;20067;-80
2023/12/26 15:34:26;;;;;;;2.03;1.15;;;11.90;82.40;;;;;;5029800;28;20037;-80
2023/12/26 15:36:52;;;;;;;2.20;1.27;;;12.00;82.40;;;;;;5010411;28;20024;-79
2023/12/26 15:39:18;;;;;;;3.13;1.20;;;11.90;82.40;;;;;;5009475;28;20548;-80
2023/12/26 15:41:44;;;;;;;2.50;1.40;;;12.00;82.40;;;;;;5030834;28;20037;-80
2023/12/26 15:44:10;;;;;;;1.60;1.20;;;12.00;82.40;;;;;;5022192;28;20061;-79
2023/12/26 15:46:36;;;;;;;3.00;1.30;;;11.90;82.30;;;;;;4989967;28;20053;-79
2023/12/26 15:49:01;;;;;;;1.85;1.30;;;12.00;82.30;;;;;;5023514;28;20532;-79
2023/12/26 15:51:27;;;;;;;1.77;1.30;;;12.00;82.30;;;;;;5007403;28;20047;-79